sensor_id;sensor_type;location;lat;lon;timestamp;temperature;humidity
4896;DHT22;2463;49.948;8.472;2023-08-01T00:01:01;18.20;99.90
4896;DHT22;2463;49.948;8.472;2023-08-01T00:03:28;18.10;99.90
4896;DHT22;2463;49.948;8.472;2023-08-01T00:05:55;18.20;99.90
4896;DHT22;2463;49.948;8.472;2023-08-01T00:08:22;18.10;99.90
4896;DHT22;2463;49.948;8.472;2023-08-01T00:10:48;18.00;99.90
4896;DHT22;2463;49.948;8.472;2023-08-01T00:13:15;18.00;99.90
4896;DHT22;2463;49.948;8.472;2023-08-01T00:15:42;18.00;99.90
4896;DHT22;2463;49.948;8.472;2023-08-01T00:18:26;18.00;99.90
4896;DHT22;2463;49.948;8.472;2023-08-01T00:20:53;18.00;99.90
4896;DHT22;2463;49.948;8.472;2023-08-01T00:23:20;17.90;99.90
4896;DHT22;2463;49.948;8.472;2023-08-01T00:25:47;17.90;99.90
4896;DHT22;2463;49.948;8.472;2023-08-01T00:28:18;17.90;99.90
4896;DHT22;2463;49.948;8.472;2023-08-01T00:30:45;18.00;99.90
4896;DHT22;2463;49.948;8.472;2023-08-01T00:33:11;17.90;99.90
4896;DHT22;2463;49.948;8.472;2023-08-01T00:35:39;18.00;99.90
4896;DHT22;2463;49.948;8.472;2023-08-01T00:38:07;18.00;99.90
4896;DHT22;2463;49.948;8.472;2023-08-01T00:40:34;18.00;99.90
4896;DHT22;2463;49.948;8.472;2023-08-01T00:43:01;18.00;99.90
4896;DHT22;2463;49.948;8.472;2023-08-01T00:45:29;17.90;99.90
4896;DHT22;2463;49.948;8.472;2023-08-01T00:47:56;17.90;99.90
4896;DHT22;2463;49.948;8.472;2023-08-01T00:50:24;17.90;99.90
4896;DHT22;2463;49.948;8.472;2023-08-01T00:52:51;17.90;99.90
4896;DHT22;2463;49.948;8.472;2023-08-01T00:55:19;18.00;99.90
4896;DHT22;2463;49.948;8.472;2023-08-01T00:57:47;18.00;99.90
4896;DHT22;2463;49.948;8.472;2023-08-01T01:00:14;18.00;99.90
4896;DHT22;2463;49.948;8.472;2023-08-01T01:02:40;17.90;99.90
4896;DHT22;2463;49.948;8.472;2023-08-01T01:05:08;18.00;99.90
4896;DHT22;2463;49.948;8.472;2023-08-01T01:07:35;17.90;99.90
4896;DHT22;2463;49.948;8.472;2023-08-01T01:10:01;17.90;99.90
4896;DHT22;2463;49.948;8.472;2023-08-01T01:12:28;17.90;99.90
4896;DHT22;2463;49.948;8.472;2023-08-01T01:14:55;17.90;99.90
4896;DHT22;2463;49.948;8.472;2023-08-01T01:17:21;17.90;99.90
4896;DHT22;2463;49.948;8.472;2023-08-01T01:19:48;17.90;99.90
4896;DHT22;2463;49.948;8.472;2023-08-01T01:22:16;17.90;99.90
4896;DHT22;2463;49.948;8.472;2023-08-01T01:24:44;17.90;99.90
4896;DHT22;2463;49.948;8.472;2023-08-01T01:27:12;17.90;99.90
4896;DHT22;2463;49.948;8.472;2023-08-01T01:29:40;17.80;99.90
4896;DHT22;2463;49.948;8.472;2023-08-01T01:32:07;17.80;99.90
4896;DHT22;2463;49.948;8.472;2023-08-01T01:34:34;17.80;99.90
4896;DHT22;2463;49.948;8.472;2023-08-01T01:37:01;17.90;99.90
4896;DHT22;2463;49.948;8.472;2023-08-01T01:39:27;17.90;99.90
4896;DHT22;2463;49.948;8.472;2023-08-01T01:41:54;17.90;99.90
4896;DHT22;2463;49.948;8.472;2023-08-01T01:44:21;17.90;99.90
4896;DHT22;2463;49.948;8.472;2023-08-01T01:46:47;18.00;99.90
4896;DHT22;2463;49.948;8.472;2023-08-01T01:49:16;17.90;99.90
4896;DHT22;2463;49.948;8.472;2023-08-01T01:51:43;18.00;99.90
4896;DHT22;2463;49.948;8.472;2023-08-01T01:54:09;18.00;99.90
4896;DHT22;2463;49.948;8.472;2023-08-01T01:56:36;17.90;99.90
4896;DHT22;2463;49.948;8.472;2023-08-01T01:59:03;17.90;99.90
4896;DHT22;2463;49.948;8.472;2023-08-01T02:01:30;17.90;99.90
4896;DHT22;2463;49.948;8.472;2023-08-01T02:03:57;17.90;99.90
4896;DHT22;2463;49.948;8.472;2023-08-01T02:06:23;17.90;99.90
4896;DHT22;2463;49.948;8.472;2023-08-01T02:08:50;18.00;99.90
4896;DHT22;2463;49.948;8.472;2023-08-01T02:11:17;18.10;99.90
4896;DHT22;2463;49.948;8.472;2023-08-01T02:13:43;18.10;99.90
4896;DHT22;2463;49.948;8.472;2023-08-01T02:16:10;18.10;99.90
4896;DHT22;2463;49.948;8.472;2023-08-01T02:18:37;18.20;99.90
4896;DHT22;2463;49.948;8.472;2023-08-01T02:21:04;18.20;99.90
4896;DHT22;2463;49.948;8.472;2023-08-01T02:23:30;18.10;99.90
4896;DHT22;2463;49.948;8.472;2023-08-01T02:25:59;18.20;99.90
4896;DHT22;2463;49.948;8.472;2023-08-01T02:28:26;18.10;99.90
4896;DHT22;2463;49.948;8.472;2023-08-01T02:30:52;18.10;99.90
4896;DHT22;2463;49.948;8.472;2023-08-01T02:33:19;18.10;99.90
4896;DHT22;2463;49.948;8.472;2023-08-01T02:35:46;18.10;99.90
4896;DHT22;2463;49.948;8.472;2023-08-01T02:38:14;18.10;99.90
4896;DHT22;2463;49.948;8.472;2023-08-01T02:40:40;18.10;99.90
4896;DHT22;2463;49.948;8.472;2023-08-01T02:43:07;18.10;99.90
4896;DHT22;2463;49.948;8.472;2023-08-01T02:45:34;18.10;99.90
4896;DHT22;2463;49.948;8.472;2023-08-01T02:48:00;18.10;99.90
4896;DHT22;2463;49.948;8.472;2023-08-01T02:50:27;18.10;99.90
4896;DHT22;2463;49.948;8.472;2023-08-01T02:52:54;18.20;99.90
4896;DHT22;2463;49.948;8.472;2023-08-01T02:55:21;18.10;99.90
4896;DHT22;2463;49.948;8.472;2023-08-01T02:57:47;18.10;99.90
4896;DHT22;2463;49.948;8.472;2023-08-01T03:00:14;18.10;99.90
4896;DHT22;2463;49.948;8.472;2023-08-01T03:02:45;18.10;99.90
4896;DHT22;2463;49.948;8.472;2023-08-01T03:05:12;18.00;99.90
4896;DHT22;2463;49.948;8.472;2023-08-01T03:07:39;18.00;99.90
4896;DHT22;2463;49.948;8.472;2023-08-01T03:10:06;18.10;99.90
4896;DHT22;2463;49.948;8.472;2023-08-01T03:12:34;18.10;99.90
4896;DHT22;2463;49.948;8.472;2023-08-01T03:15:01;18.20;99.90
4896;DHT22;2463;49.948;8.472;2023-08-01T03:17:28;18.20;99.90
4896;DHT22;2463;49.948;8.472;2023-08-01T03:19:54;18.20;99.90
4896;DHT22;2463;49.948;8.472;2023-08-01T03:22:22;18.20;99.90
4896;DHT22;2463;49.948;8.472;2023-08-01T03:24:48;18.20;99.90
4896;DHT22;2463;49.948;8.472;2023-08-01T03:27:15;18.30;99.90
4896;DHT22;2463;49.948;8.472;2023-08-01T03:29:42;18.30;99.90
4896;DHT22;2463;49.948;8.472;2023-08-01T03:32:08;18.30;99.90
4896;DHT22;2463;49.948;8.472;2023-08-01T03:34:35;18.30;99.90
4896;DHT22;2463;49.948;8.472;2023-08-01T03:37:03;18.40;99.90
4896;DHT22;2463;49.948;8.472;2023-08-01T03:39:30;18.30;99.90
4896;DHT22;2463;49.948;8.472;2023-08-01T03:41:57;18.40;99.90
4896;DHT22;2463;49.948;8.472;2023-08-01T03:44:23;18.40;99.90
4896;DHT22;2463;49.948;8.472;2023-08-01T03:46:50;18.30;99.90
4896;DHT22;2463;49.948;8.472;2023-08-01T03:49:17;18.30;99.90
4896;DHT22;2463;49.948;8.472;2023-08-01T03:51:44;18.40;99.90
4896;DHT22;2463;49.948;8.472;2023-08-01T03:54:11;18.40;99.90
4896;DHT22;2463;49.948;8.472;2023-08-01T03:56:40;18.30;99.90
4896;DHT22;2463;49.948;8.472;2023-08-01T03:59:14;18.30;99.90
4896;DHT22;2463;49.948;8.472;2023-08-01T04:01:42;18.40;99.90
4896;DHT22;2463;49.948;8.472;2023-08-01T04:04:09;18.40;99.90
4896;DHT22;2463;49.948;8.472;2023-08-01T04:06:36;18.30;99.90
4896;DHT22;2463;49.948;8.472;2023-08-01T04:09:03;18.40;99.90
4896;DHT22;2463;49.948;8.472;2023-08-01T04:11:29;18.30;99.90
4896;DHT22;2463;49.948;8.472;2023-08-01T04:13:56;18.30;99.90
4896;DHT22;2463;49.948;8.472;2023-08-01T04:16:23;18.40;99.90
4896;DHT22;2463;49.948;8.472;2023-08-01T04:18:50;18.30;99.90
4896;DHT22;2463;49.948;8.472;2023-08-01T04:21:17;18.30;99.90
4896;DHT22;2463;49.948;8.472;2023-08-01T04:23:44;18.30;99.90
4896;DHT22;2463;49.948;8.472;2023-08-01T04:26:11;18.40;99.90
4896;DHT22;2463;49.948;8.472;2023-08-01T04:28:38;18.50;99.90
4896;DHT22;2463;49.948;8.472;2023-08-01T04:31:04;18.30;99.90
4896;DHT22;2463;49.948;8.472;2023-08-01T04:33:31;18.30;99.90
4896;DHT22;2463;49.948;8.472;2023-08-01T04:35:58;18.30;99.90
4896;DHT22;2463;49.948;8.472;2023-08-01T04:38:25;18.30;99.90
4896;DHT22;2463;49.948;8.472;2023-08-01T04:40:51;18.20;99.90
4896;DHT22;2463;49.948;8.472;2023-08-01T04:43:18;18.30;99.90
4896;DHT22;2463;49.948;8.472;2023-08-01T04:45:45;18.20;99.90
4896;DHT22;2463;49.948;8.472;2023-08-01T04:48:12;18.20;99.90
4896;DHT22;2463;49.948;8.472;2023-08-01T04:50:39;18.20;99.90
4896;DHT22;2463;49.948;8.472;2023-08-01T04:53:05;18.20;99.90
4896;DHT22;2463;49.948;8.472;2023-08-01T04:55:32;18.10;99.90
4896;DHT22;2463;49.948;8.472;2023-08-01T04:57:59;18.10;99.90
4896;DHT22;2463;49.948;8.472;2023-08-01T05:00:26;18.00;99.90
4896;DHT22;2463;49.948;8.472;2023-08-01T05:02:53;18.10;99.90
4896;DHT22;2463;49.948;8.472;2023-08-01T05:05:19;18.00;99.90
4896;DHT22;2463;49.948;8.472;2023-08-01T05:07:46;18.00;99.90
4896;DHT22;2463;49.948;8.472;2023-08-01T05:10:13;17.80;99.90
4896;DHT22;2463;49.948;8.472;2023-08-01T05:12:43;17.90;99.90
4896;DHT22;2463;49.948;8.472;2023-08-01T05:15:10;17.80;99.90
4896;DHT22;2463;49.948;8.472;2023-08-01T05:17:36;17.90;99.90
4896;DHT22;2463;49.948;8.472;2023-08-01T05:20:04;17.90;99.90
4896;DHT22;2463;49.948;8.472;2023-08-01T05:22:31;17.90;99.90
4896;DHT22;2463;49.948;8.472;2023-08-01T05:24:57;18.00;99.90
4896;DHT22;2463;49.948;8.472;2023-08-01T05:27:24;18.00;99.90
4896;DHT22;2463;49.948;8.472;2023-08-01T05:29:51;18.00;99.90
4896;DHT22;2463;49.948;8.472;2023-08-01T05:32:17;18.00;99.90
4896;DHT22;2463;49.948;8.472;2023-08-01T05:34:44;18.00;99.90
4896;DHT22;2463;49.948;8.472;2023-08-01T05:37:11;18.10;99.90
4896;DHT22;2463;49.948;8.472;2023-08-01T05:39:38;18.10;99.90
4896;DHT22;2463;49.948;8.472;2023-08-01T05:42:05;18.00;99.90
4896;DHT22;2463;49.948;8.472;2023-08-01T05:44:35;18.00;99.90
4896;DHT22;2463;49.948;8.472;2023-08-01T05:47:02;18.10;99.90
4896;DHT22;2463;49.948;8.472;2023-08-01T05:49:29;18.10;99.90
4896;DHT22;2463;49.948;8.472;2023-08-01T05:51:56;18.10;99.90
4896;DHT22;2463;49.948;8.472;2023-08-01T05:54:23;18.00;99.90
4896;DHT22;2463;49.948;8.472;2023-08-01T05:56:50;18.00;99.90
4896;DHT22;2463;49.948;8.472;2023-08-01T05:59:17;18.10;99.90
4896;DHT22;2463;49.948;8.472;2023-08-01T06:01:44;17.90;99.90
4896;DHT22;2463;49.948;8.472;2023-08-01T06:04:11;17.90;99.90
4896;DHT22;2463;49.948;8.472;2023-08-01T06:06:37;17.80;99.90
4896;DHT22;2463;49.948;8.472;2023-08-01T06:09:05;17.90;99.90
4896;DHT22;2463;49.948;8.472;2023-08-01T06:11:31;17.90;99.90
4896;DHT22;2463;49.948;8.472;2023-08-01T06:14:00;17.90;99.90
4896;DHT22;2463;49.948;8.472;2023-08-01T06:16:27;17.70;99.90
4896;DHT22;2463;49.948;8.472;2023-08-01T06:18:53;17.80;99.90
4896;DHT22;2463;49.948;8.472;2023-08-01T06:21:20;17.80;99.90
4896;DHT22;2463;49.948;8.472;2023-08-01T06:23:47;17.80;99.90
4896;DHT22;2463;49.948;8.472;2023-08-01T06:26:14;17.80;99.90
4896;DHT22;2463;49.948;8.472;2023-08-01T06:28:42;17.80;99.90
4896;DHT22;2463;49.948;8.472;2023-08-01T06:31:09;17.80;99.90
4896;DHT22;2463;49.948;8.472;2023-08-01T06:33:36;17.90;99.90
4896;DHT22;2463;49.948;8.472;2023-08-01T06:36:03;17.90;99.90
4896;DHT22;2463;49.948;8.472;2023-08-01T06:38:29;17.90;99.90
4896;DHT22;2463;49.948;8.472;2023-08-01T06:40:56;18.00;99.90
4896;DHT22;2463;49.948;8.472;2023-08-01T06:43:23;18.10;99.90
4896;DHT22;2463;49.948;8.472;2023-08-01T06:45:51;18.20;99.90
4896;DHT22;2463;49.948;8.472;2023-08-01T06:48:18;18.20;99.90
4896;DHT22;2463;49.948;8.472;2023-08-01T06:50:44;18.30;99.90
4896;DHT22;2463;49.948;8.472;2023-08-01T06:53:11;18.40;99.90
4896;DHT22;2463;49.948;8.472;2023-08-01T06:55:38;18.30;99.90
4896;DHT22;2463;49.948;8.472;2023-08-01T06:58:06;18.40;99.90
4896;DHT22;2463;49.948;8.472;2023-08-01T07:00:32;18.40;99.90
4896;DHT22;2463;49.948;8.472;2023-08-01T07:02:59;18.50;99.90
4896;DHT22;2463;49.948;8.472;2023-08-01T07:05:26;18.50;99.90
4896;DHT22;2463;49.948;8.472;2023-08-01T07:07:53;18.60;99.90
4896;DHT22;2463;49.948;8.472;2023-08-01T07:10:20;18.80;99.90
4896;DHT22;2463;49.948;8.472;2023-08-01T07:12:46;18.80;99.90
4896;DHT22;2463;49.948;8.472;2023-08-01T07:15:14;18.90;99.90
4896;DHT22;2463;49.948;8.472;2023-08-01T07:17:40;19.10;99.90
4896;DHT22;2463;49.948;8.472;2023-08-01T07:20:08;19.20;99.90
4896;DHT22;2463;49.948;8.472;2023-08-01T07:22:35;18.30;99.90
4896;DHT22;2463;49.948;8.472;2023-08-01T07:25:01;19.30;99.90
4896;DHT22;2463;49.948;8.472;2023-08-01T07:27:28;19.40;99.90
4896;DHT22;2463;49.948;8.472;2023-08-01T07:29:55;19.60;99.90
4896;DHT22;2463;49.948;8.472;2023-08-01T07:32:21;19.50;99.90
4896;DHT22;2463;49.948;8.472;2023-08-01T07:34:48;19.60;99.90
4896;DHT22;2463;49.948;8.472;2023-08-01T07:37:15;19.60;99.90
4896;DHT22;2463;49.948;8.472;2023-08-01T07:39:41;19.80;99.90
4896;DHT22;2463;49.948;8.472;2023-08-01T07:42:08;19.80;99.90
4896;DHT22;2463;49.948;8.472;2023-08-01T07:44:35;19.80;99.90
4896;DHT22;2463;49.948;8.472;2023-08-01T07:47:02;19.80;99.90
4896;DHT22;2463;49.948;8.472;2023-08-01T07:49:29;19.80;99.90
4896;DHT22;2463;49.948;8.472;2023-08-01T07:51:55;19.90;99.90
4896;DHT22;2463;49.948;8.472;2023-08-01T07:54:23;20.00;99.90
4896;DHT22;2463;49.948;8.472;2023-08-01T07:56:50;20.20;99.90
4896;DHT22;2463;49.948;8.472;2023-08-01T07:59:17;20.50;99.90
4896;DHT22;2463;49.948;8.472;2023-08-01T08:01:44;20.90;99.90
4896;DHT22;2463;49.948;8.472;2023-08-01T08:04:10;21.30;99.90
4896;DHT22;2463;49.948;8.472;2023-08-01T08:06:38;21.70;99.90
4896;DHT22;2463;49.948;8.472;2023-08-01T08:09:05;22.10;99.90
4896;DHT22;2463;49.948;8.472;2023-08-01T08:11:32;22.40;99.90
4896;DHT22;2463;49.948;8.472;2023-08-01T08:14:00;22.80;99.90
4896;DHT22;2463;49.948;8.472;2023-08-01T08:16:26;23.20;99.90
4896;DHT22;2463;49.948;8.472;2023-08-01T08:18:53;23.40;99.90
4896;DHT22;2463;49.948;8.472;2023-08-01T08:21:20;23.70;99.90
4896;DHT22;2463;49.948;8.472;2023-08-01T08:23:47;24.00;99.90
4896;DHT22;2463;49.948;8.472;2023-08-01T08:26:14;25.40;99.90
4896;DHT22;2463;49.948;8.472;2023-08-01T08:28:40;24.50;99.90
4896;DHT22;2463;49.948;8.472;2023-08-01T08:31:09;24.50;99.90
4896;DHT22;2463;49.948;8.472;2023-08-01T08:33:35;24.40;99.90
4896;DHT22;2463;49.948;8.472;2023-08-01T08:36:02;24.30;99.90
4896;DHT22;2463;49.948;8.472;2023-08-01T08:38:29;24.20;99.90
4896;DHT22;2463;49.948;8.472;2023-08-01T08:41:09;24.20;99.90
4896;DHT22;2463;49.948;8.472;2023-08-01T08:43:37;24.50;99.90
4896;DHT22;2463;49.948;8.472;2023-08-01T08:46:04;24.70;99.90
4896;DHT22;2463;49.948;8.472;2023-08-01T08:48:32;24.80;99.90
4896;DHT22;2463;49.948;8.472;2023-08-01T08:51:01;24.80;99.90
4896;DHT22;2463;49.948;8.472;2023-08-01T08:53:29;24.80;99.90
4896;DHT22;2463;49.948;8.472;2023-08-01T08:55:57;25.00;99.90
4896;DHT22;2463;49.948;8.472;2023-08-01T08:58:24;24.90;99.90
4896;DHT22;2463;49.948;8.472;2023-08-01T09:00:51;25.10;99.90
4896;DHT22;2463;49.948;8.472;2023-08-01T09:03:18;25.20;99.90
4896;DHT22;2463;49.948;8.472;2023-08-01T09:05:58;25.20;99.90
4896;DHT22;2463;49.948;8.472;2023-08-01T09:08:28;25.00;99.90
4896;DHT22;2463;49.948;8.472;2023-08-01T09:10:57;24.70;99.90
4896;DHT22;2463;49.948;8.472;2023-08-01T09:13:23;24.60;99.90
4896;DHT22;2463;49.948;8.472;2023-08-01T09:15:50;24.60;99.90
4896;DHT22;2463;49.948;8.472;2023-08-01T09:18:18;24.60;99.90
4896;DHT22;2463;49.948;8.472;2023-08-01T09:20:47;24.60;99.90
4896;DHT22;2463;49.948;8.472;2023-08-01T09:23:15;24.50;99.90
4896;DHT22;2463;49.948;8.472;2023-08-01T09:25:42;24.60;99.90
4896;DHT22;2463;49.948;8.472;2023-08-01T09:28:20;24.80;99.90
4896;DHT22;2463;49.948;8.472;2023-08-01T09:30:55;24.80;99.90
4896;DHT22;2463;49.948;8.472;2023-08-01T09:33:22;24.60;99.90
4896;DHT22;2463;49.948;8.472;2023-08-01T09:35:50;24.50;99.90
4896;DHT22;2463;49.948;8.472;2023-08-01T09:38:17;24.20;99.90
4896;DHT22;2463;49.948;8.472;2023-08-01T09:40:45;24.10;99.90
4896;DHT22;2463;49.948;8.472;2023-08-01T09:43:13;23.90;99.90
4896;DHT22;2463;49.948;8.472;2023-08-01T09:45:53;24.10;99.90
4896;DHT22;2463;49.948;8.472;2023-08-01T09:48:28;24.30;99.90
4896;DHT22;2463;49.948;8.472;2023-08-01T09:53:32;24.90;99.90
4896;DHT22;2463;49.948;8.472;2023-08-01T09:56:02;25.20;99.90
4896;DHT22;2463;49.948;8.472;2023-08-01T09:58:32;25.40;99.90
4896;DHT22;2463;49.948;8.472;2023-08-01T10:01:00;25.30;99.90
4896;DHT22;2463;49.948;8.472;2023-08-01T10:03:29;25.10;99.90
4896;DHT22;2463;49.948;8.472;2023-08-01T10:05:56;24.60;99.90
4896;DHT22;2463;49.948;8.472;2023-08-01T10:08:25;24.30;99.90
4896;DHT22;2463;49.948;8.472;2023-08-01T10:10:52;23.90;99.90
4896;DHT22;2463;49.948;8.472;2023-08-01T10:13:23;23.80;99.90
4896;DHT22;2463;49.948;8.472;2023-08-01T10:15:51;24.10;99.90
4896;DHT22;2463;49.948;8.472;2023-08-01T10:18:18;24.50;99.90
4896;DHT22;2463;49.948;8.472;2023-08-01T10:20:45;24.80;99.90
4896;DHT22;2463;49.948;8.472;2023-08-01T10:23:13;25.00;99.90
4896;DHT22;2463;49.948;8.472;2023-08-01T10:25:41;25.10;99.90
4896;DHT22;2463;49.948;8.472;2023-08-01T10:28:08;25.20;99.90
4896;DHT22;2463;49.948;8.472;2023-08-01T10:30:35;25.50;99.90
4896;DHT22;2463;49.948;8.472;2023-08-01T10:33:01;25.70;99.90
4896;DHT22;2463;49.948;8.472;2023-08-01T10:35:35;25.50;99.90
4896;DHT22;2463;49.948;8.472;2023-08-01T10:38:12;25.20;99.90
4896;DHT22;2463;49.948;8.472;2023-08-01T10:40:43;24.70;99.90
4896;DHT22;2463;49.948;8.472;2023-08-01T10:43:20;24.50;99.90
4896;DHT22;2463;49.948;8.472;2023-08-01T10:45:47;24.20;99.90
4896;DHT22;2463;49.948;8.472;2023-08-01T10:48:14;24.00;99.90
4896;DHT22;2463;49.948;8.472;2023-08-01T10:50:41;24.00;99.90
4896;DHT22;2463;49.948;8.472;2023-08-01T10:53:09;24.40;99.90
4896;DHT22;2463;49.948;8.472;2023-08-01T10:55:44;24.90;99.90
4896;DHT22;2463;49.948;8.472;2023-08-01T10:58:11;26.00;99.90
4896;DHT22;2463;49.948;8.472;2023-08-01T11:00:38;25.50;99.90
4896;DHT22;2463;49.948;8.472;2023-08-01T11:03:06;25.60;99.90
4896;DHT22;2463;49.948;8.472;2023-08-01T11:05:33;25.60;99.90
4896;DHT22;2463;49.948;8.472;2023-08-01T11:08:02;25.70;99.90
4896;DHT22;2463;49.948;8.472;2023-08-01T11:10:31;25.90;99.90
4896;DHT22;2463;49.948;8.472;2023-08-01T11:12:59;26.00;99.90
4896;DHT22;2463;49.948;8.472;2023-08-01T11:15:26;26.20;99.90
4896;DHT22;2463;49.948;8.472;2023-08-01T11:17:54;26.30;99.90
4896;DHT22;2463;49.948;8.472;2023-08-01T11:20:22;26.50;99.90
4896;DHT22;2463;49.948;8.472;2023-08-01T11:25:30;26.60;99.90
4896;DHT22;2463;49.948;8.472;2023-08-01T11:27:57;26.70;99.90
4896;DHT22;2463;49.948;8.472;2023-08-01T11:30:33;27.00;99.90
4896;DHT22;2463;49.948;8.472;2023-08-01T11:33:01;27.20;99.90
4896;DHT22;2463;49.948;8.472;2023-08-01T11:35:29;27.40;99.90
4896;DHT22;2463;49.948;8.472;2023-08-01T11:37:56;27.40;99.90
4896;DHT22;2463;49.948;8.472;2023-08-01T11:40:25;27.30;99.90
4896;DHT22;2463;49.948;8.472;2023-08-01T11:42:57;27.10;99.90
4896;DHT22;2463;49.948;8.472;2023-08-01T11:45:24;26.70;99.90
4896;DHT22;2463;49.948;8.472;2023-08-01T11:47:52;26.50;99.90
4896;DHT22;2463;49.948;8.472;2023-08-01T11:50:23;26.40;99.90
4896;DHT22;2463;49.948;8.472;2023-08-01T11:52:51;26.60;99.90
4896;DHT22;2463;49.948;8.472;2023-08-01T11:55:27;26.70;99.90
4896;DHT22;2463;49.948;8.472;2023-08-01T11:57:56;26.80;99.90
4896;DHT22;2463;49.948;8.472;2023-08-01T12:00:25;26.80;99.90
4896;DHT22;2463;49.948;8.472;2023-08-01T12:03:03;27.00;99.90
4896;DHT22;2463;49.948;8.472;2023-08-01T12:05:30;27.30;99.90
4896;DHT22;2463;49.948;8.472;2023-08-01T12:08:11;27.50;99.90
4896;DHT22;2463;49.948;8.472;2023-08-01T12:10:43;27.50;99.90
4896;DHT22;2463;49.948;8.472;2023-08-01T12:13:23;27.80;99.90
4896;DHT22;2463;49.948;8.472;2023-08-01T12:15:51;28.00;99.90
4896;DHT22;2463;49.948;8.472;2023-08-01T12:18:26;28.10;99.90
4896;DHT22;2463;49.948;8.472;2023-08-01T12:20:56;28.20;99.60
4896;DHT22;2463;49.948;8.472;2023-08-01T12:23:23;28.00;98.40
4896;DHT22;2463;49.948;8.472;2023-08-01T12:25:50;27.90;98.70
4896;DHT22;2463;49.948;8.472;2023-08-01T12:28:16;27.60;98.80
4896;DHT22;2463;49.948;8.472;2023-08-01T12:30:43;27.50;98.40
4896;DHT22;2463;49.948;8.472;2023-08-01T12:33:10;27.50;97.90
4896;DHT22;2463;49.948;8.472;2023-08-01T12:35:41;27.40;99.70
4896;DHT22;2463;49.948;8.472;2023-08-01T12:38:08;27.60;99.90
4896;DHT22;2463;49.948;8.472;2023-08-01T12:40:36;27.60;98.60
4896;DHT22;2463;49.948;8.472;2023-08-01T12:43:03;27.50;97.60
4896;DHT22;2463;49.948;8.472;2023-08-01T12:45:29;27.30;97.60
4896;DHT22;2463;49.948;8.472;2023-08-01T12:47:56;27.00;98.60
4896;DHT22;2463;49.948;8.472;2023-08-01T12:50:23;26.70;97.60
4896;DHT22;2463;49.948;8.472;2023-08-01T12:52:50;26.40;98.60
4896;DHT22;2463;49.948;8.472;2023-08-01T12:55:17;26.30;98.80
4896;DHT22;2463;49.948;8.472;2023-08-01T12:57:43;26.30;99.90
4896;DHT22;2463;49.948;8.472;2023-08-01T13:00:11;26.20;99.70
4896;DHT22;2463;49.948;8.472;2023-08-01T13:02:38;26.10;99.40
4896;DHT22;2463;49.948;8.472;2023-08-01T13:05:05;26.10;99.90
4896;DHT22;2463;49.948;8.472;2023-08-01T13:07:32;26.10;99.90
4896;DHT22;2463;49.948;8.472;2023-08-01T13:09:59;26.10;99.90
4896;DHT22;2463;49.948;8.472;2023-08-01T13:12:26;26.50;99.90
4896;DHT22;2463;49.948;8.472;2023-08-01T13:14:53;26.70;99.90
4896;DHT22;2463;49.948;8.472;2023-08-01T13:17:39;26.90;99.90
4896;DHT22;2463;49.948;8.472;2023-08-01T13:20:07;26.90;99.90
4896;DHT22;2463;49.948;8.472;2023-08-01T13:22:34;26.90;99.90
4896;DHT22;2463;49.948;8.472;2023-08-01T13:25:00;26.70;99.90
4896;DHT22;2463;49.948;8.472;2023-08-01T13:27:28;26.90;99.90
4896;DHT22;2463;49.948;8.472;2023-08-01T13:29:55;26.90;99.90
4896;DHT22;2463;49.948;8.472;2023-08-01T13:32:22;26.70;99.30
4896;DHT22;2463;49.948;8.472;2023-08-01T13:34:48;26.40;99.50
4896;DHT22;2463;49.948;8.472;2023-08-01T13:37:15;26.30;99.70
4896;DHT22;2463;49.948;8.472;2023-08-01T13:39:42;26.30;99.90
4896;DHT22;2463;49.948;8.472;2023-08-01T13:42:09;26.60;99.80
4896;DHT22;2463;49.948;8.472;2023-08-01T13:44:36;26.70;99.90
4896;DHT22;2463;49.948;8.472;2023-08-01T13:47:03;26.80;99.30
4896;DHT22;2463;49.948;8.472;2023-08-01T13:49:30;26.60;99.20
4896;DHT22;2463;49.948;8.472;2023-08-01T13:51:57;26.40;99.10
4896;DHT22;2463;49.948;8.472;2023-08-01T13:54:24;26.00;99.90
4896;DHT22;2463;49.948;8.472;2023-08-01T13:56:50;25.50;99.90
4896;DHT22;2463;49.948;8.472;2023-08-01T13:59:18;25.20;99.90
4896;DHT22;2463;49.948;8.472;2023-08-01T14:01:46;24.90;99.90
4896;DHT22;2463;49.948;8.472;2023-08-01T14:04:13;24.50;99.90
4896;DHT22;2463;49.948;8.472;2023-08-01T14:06:42;24.00;99.90
4896;DHT22;2463;49.948;8.472;2023-08-01T14:09:10;22.90;99.90
4896;DHT22;2463;49.948;8.472;2023-08-01T14:11:39;22.10;99.90
4896;DHT22;2463;49.948;8.472;2023-08-01T14:14:06;21.40;99.90
4896;DHT22;2463;49.948;8.472;2023-08-01T14:16:32;21.10;99.90
4896;DHT22;2463;49.948;8.472;2023-08-01T14:18:59;20.90;99.90
4896;DHT22;2463;49.948;8.472;2023-08-01T14:21:26;20.90;99.90
4896;DHT22;2463;49.948;8.472;2023-08-01T14:23:53;20.90;99.90
4896;DHT22;2463;49.948;8.472;2023-08-01T14:26:20;20.90;99.90
4896;DHT22;2463;49.948;8.472;2023-08-01T14:28:47;21.00;99.90
4896;DHT22;2463;49.948;8.472;2023-08-01T14:31:14;21.10;99.90
4896;DHT22;2463;49.948;8.472;2023-08-01T14:33:41;21.10;99.90
4896;DHT22;2463;49.948;8.472;2023-08-01T14:36:09;21.00;99.90
4896;DHT22;2463;49.948;8.472;2023-08-01T14:38:36;21.00;99.90
4896;DHT22;2463;49.948;8.472;2023-08-01T14:41:03;20.90;99.90
4896;DHT22;2463;49.948;8.472;2023-08-01T14:43:48;20.80;99.90
4896;DHT22;2463;49.948;8.472;2023-08-01T14:46:14;20.80;99.90
4896;DHT22;2463;49.948;8.472;2023-08-01T14:48:41;20.80;99.90
4896;DHT22;2463;49.948;8.472;2023-08-01T14:51:08;20.80;99.90
4896;DHT22;2463;49.948;8.472;2023-08-01T14:53:35;21.10;99.90
4896;DHT22;2463;49.948;8.472;2023-08-01T14:56:01;21.40;99.90
4896;DHT22;2463;49.948;8.472;2023-08-01T14:58:32;21.80;99.90
4896;DHT22;2463;49.948;8.472;2023-08-01T15:00:58;22.10;99.90
4896;DHT22;2463;49.948;8.472;2023-08-01T15:03:25;22.30;99.90
4896;DHT22;2463;49.948;8.472;2023-08-01T15:05:52;22.50;99.90
4896;DHT22;2463;49.948;8.472;2023-08-01T15:08:19;22.50;99.90
4896;DHT22;2463;49.948;8.472;2023-08-01T15:10:46;22.40;99.90
4896;DHT22;2463;49.948;8.472;2023-08-01T15:13:12;22.30;99.90
4896;DHT22;2463;49.948;8.472;2023-08-01T15:15:40;22.10;99.90
4896;DHT22;2463;49.948;8.472;2023-08-01T15:18:07;22.10;99.90
4896;DHT22;2463;49.948;8.472;2023-08-01T15:20:34;22.10;99.90
4896;DHT22;2463;49.948;8.472;2023-08-01T15:23:04;22.00;99.90
4896;DHT22;2463;49.948;8.472;2023-08-01T15:25:31;21.90;99.90
4896;DHT22;2463;49.948;8.472;2023-08-01T15:27:59;21.80;99.90
4896;DHT22;2463;49.948;8.472;2023-08-01T15:30:26;21.70;99.90
4896;DHT22;2463;49.948;8.472;2023-08-01T15:32:53;21.40;99.90
4896;DHT22;2463;49.948;8.472;2023-08-01T15:35:24;21.20;99.90
4896;DHT22;2463;49.948;8.472;2023-08-01T15:37:54;21.10;99.90
4896;DHT22;2463;49.948;8.472;2023-08-01T15:40:22;20.90;99.90
4896;DHT22;2463;49.948;8.472;2023-08-01T15:42:48;20.60;99.90
4896;DHT22;2463;49.948;8.472;2023-08-01T15:45:15;20.70;99.90
4896;DHT22;2463;49.948;8.472;2023-08-01T15:47:42;20.70;99.90
4896;DHT22;2463;49.948;8.472;2023-08-01T15:50:09;20.70;99.90
4896;DHT22;2463;49.948;8.472;2023-08-01T15:52:35;20.70;99.90
4896;DHT22;2463;49.948;8.472;2023-08-01T15:55:02;20.60;99.90
4896;DHT22;2463;49.948;8.472;2023-08-01T15:57:29;20.60;99.90
4896;DHT22;2463;49.948;8.472;2023-08-01T15:59:55;20.70;99.90
4896;DHT22;2463;49.948;8.472;2023-08-01T16:02:22;20.70;99.90
4896;DHT22;2463;49.948;8.472;2023-08-01T16:04:49;20.80;99.90
4896;DHT22;2463;49.948;8.472;2023-08-01T16:07:16;20.90;99.90
4896;DHT22;2463;49.948;8.472;2023-08-01T16:09:42;21.00;99.90